createdAt,value
2024-02-04T00:01:00.157Z,96719.38
2024-02-04T00:03:26.732Z,96723.41
2024-02-04T00:05:53.124Z,96721.34
2024-02-04T00:08:19.455Z,96713.25
2024-02-04T00:10:45.819Z,96710.59
2024-02-04T00:13:12.272Z,96705.16
2024-02-04T00:15:38.646Z,96710.00
2024-02-04T00:18:05.091Z,96710.78
2024-02-04T00:20:31.593Z,96710.09
2024-02-04T00:22:57.912Z,96709.19
2024-02-04T00:25:24.309Z,96705.00
2024-02-04T00:27:51.032Z,96705.44
2024-02-04T00:30:17.378Z,96702.66
2024-02-04T00:32:43.821Z,96700.09
2024-02-04T00:35:10.212Z,96711.31
2024-02-04T00:37:36.549Z,96713.97
2024-02-04T00:40:02.994Z,96709.56
2024-02-04T00:42:29.494Z,96711.53
2024-02-04T00:44:56.029Z,96714.97
2024-02-04T00:47:22.374Z,96712.09
2024-02-04T00:49:48.774Z,96703.81
2024-02-04T00:52:15.140Z,96699.84
2024-02-04T00:54:41.491Z,96705.59
2024-02-04T00:57:07.848Z,96715.56
2024-02-04T00:59:34.186Z,96726.63
2024-02-04T01:02:00.634Z,96727.91
2024-02-04T01:04:27.258Z,96725.91
2024-02-04T01:07:00.999Z,96731.38
2024-02-04T01:09:28.583Z,96724.66
2024-02-04T01:11:54.953Z,96723.25
2024-02-04T01:14:21.278Z,96721.78
2024-02-04T01:16:47.621Z,96728.34
2024-02-04T01:19:14.090Z,96731.38
2024-02-04T01:21:40.607Z,96729.75
2024-02-04T01:24:06.962Z,96725.31
2024-02-04T01:26:33.294Z,96717.38
2024-02-04T01:28:59.622Z,96719.56
2024-02-04T01:31:25.934Z,96726.25
2024-02-04T01:33:52.656Z,96719.00
2024-02-04T01:36:19.054Z,96726.69
2024-02-04T01:38:45.377Z,96723.22
2024-02-04T01:41:11.746Z,96727.66
2024-02-04T01:43:38.108Z,96725.00
2024-02-04T01:46:08.682Z,96724.75
2024-02-04T01:48:35.738Z,96724.50
2024-02-04T01:51:02.195Z,96719.63
2024-02-04T01:53:28.579Z,96714.25
2024-02-04T01:55:54.908Z,96700.47
2024-02-04T01:58:21.265Z,96695.00
2024-02-04T02:00:47.635Z,96683.13
2024-02-04T02:03:14.098Z,96684.16
2024-02-04T02:05:40.442Z,96688.06
2024-02-04T02:08:06.775Z,96690.59
2024-02-04T02:10:33.225Z,96683.34
2024-02-04T02:12:59.684Z,96686.00
2024-02-04T02:15:26.273Z,96697.75
2024-02-04T02:17:52.731Z,96697.22
2024-02-04T02:20:19.106Z,96696.13
2024-02-04T02:22:45.450Z,96696.66
2024-02-04T02:25:11.807Z,96692.03
2024-02-04T02:27:38.166Z,96690.91
2024-02-04T02:30:04.496Z,96688.13
2024-02-04T02:32:31.104Z,96693.28
2024-02-04T02:34:57.546Z,96684.66
2024-02-04T02:37:23.918Z,96677.94
2024-02-04T02:39:50.269Z,96677.94
2024-02-04T02:42:16.585Z,96682.00
2024-02-04T02:44:42.921Z,96669.31
2024-02-04T02:47:09.301Z,96661.19
2024-02-04T02:49:35.842Z,96668.16
2024-02-04T02:52:02.282Z,96660.88
2024-02-04T02:54:28.612Z,96658.13
2024-02-04T02:56:54.954Z,96651.00
2024-02-04T02:59:21.277Z,96649.88
2024-02-04T03:01:47.674Z,96661.81
2024-02-04T03:04:14.127Z,96672.28
2024-02-04T03:06:40.590Z,96665.28
2024-02-04T03:09:06.936Z,96672.75
2024-02-04T03:11:33.292Z,96673.91
2024-02-04T03:13:59.624Z,96672.75
2024-02-04T03:16:25.961Z,96674.22
2024-02-04T03:18:52.386Z,96678.06
2024-02-04T03:21:18.756Z,96672.75
2024-02-04T03:23:45.089Z,96678.78
2024-02-04T03:26:11.433Z,96681.06
2024-02-04T03:28:37.761Z,96688.16
2024-02-04T03:31:04.416Z,96684.97
2024-02-04T03:33:30.951Z,96689.03
2024-02-04T03:35:57.356Z,96685.94
2024-02-04T03:38:23.677Z,96685.22
2024-02-04T03:40:50.124Z,96692.22
2024-02-04T03:43:16.571Z,96690.44
2024-02-04T03:45:42.960Z,96692.94
2024-02-04T03:48:09.397Z,96691.69
2024-02-04T03:50:35.789Z,96691.31
2024-02-04T03:53:02.112Z,96697.88
2024-02-04T03:55:28.468Z,96696.69
2024-02-04T03:57:54.805Z,96699.59
2024-02-04T04:00:21.141Z,96711.22
2024-02-04T04:02:47.539Z,96717.63
2024-02-04T04:05:14.271Z,96715.53
2024-02-04T04:07:40.883Z,96715.50
2024-02-04T04:10:07.294Z,96715.84
2024-02-04T04:12:33.645Z,96724.09
2024-02-04T04:14:59.982Z,96723.72
2024-02-04T04:17:26.299Z,96734.63
2024-02-04T04:19:52.741Z,96733.56
2024-02-04T04:22:19.136Z,96734.81
2024-02-04T04:24:45.626Z,96746.81
2024-02-04T04:27:11.977Z,96749.44
2024-02-04T04:29:38.304Z,96753.69
2024-02-04T04:32:04.626Z,96745.56
2024-02-04T04:34:30.959Z,96754.00
2024-02-04T04:36:57.441Z,96753.16
2024-02-04T04:39:23.814Z,96751.34
2024-02-04T04:41:50.152Z,96755.38
2024-02-04T04:44:16.495Z,96747.28
2024-02-04T04:46:42.824Z,96762.56
2024-02-04T04:49:09.274Z,96758.91
2024-02-04T04:51:35.657Z,96766.88
2024-02-04T04:54:02.030Z,96764.63
2024-02-04T04:56:28.380Z,96758.31
2024-02-04T04:58:54.720Z,96768.13
2024-02-04T05:01:21.247Z,96757.75
2024-02-04T05:03:47.681Z,96760.16
2024-02-04T05:06:14.019Z,96761.78
2024-02-04T05:08:40.342Z,96761.22
2024-02-04T05:11:06.669Z,96760.63
2024-02-04T05:13:32.995Z,96753.47
2024-02-04T05:15:59.327Z,96752.66
2024-02-04T05:18:25.871Z,96748.38
2024-02-04T05:20:52.257Z,96738.59
2024-02-04T05:23:18.628Z,96740.94
2024-02-04T05:25:44.962Z,96745.56
2024-02-04T05:28:11.390Z,96740.94
2024-02-04T05:30:37.800Z,96741.94
2024-02-04T05:33:04.198Z,96735.34
2024-02-04T05:35:30.528Z,96718.22
2024-02-04T05:37:56.859Z,96724.53
2024-02-04T05:40:23.184Z,96732.25
2024-02-04T05:42:49.849Z,96728.63
2024-02-04T05:45:16.221Z,96729.94
2024-02-04T05:47:42.782Z,96731.63
2024-02-04T05:50:09.329Z,96725.50
2024-02-04T05:52:35.716Z,96733.09
2024-02-04T05:55:04.920Z,96730.53
2024-02-04T05:57:31.931Z,96733.09
2024-02-04T05:59:58.263Z,96732.47
2024-02-04T06:02:24.757Z,96739.03
2024-02-04T06:04:51.264Z,96736.38
2024-02-04T06:07:17.836Z,96738.44
2024-02-04T06:09:44.270Z,96731.84
2024-02-04T06:12:10.613Z,96733.09
2024-02-04T06:14:36.948Z,96727.00
2024-02-04T06:17:03.281Z,96726.56
2024-02-04T06:19:29.725Z,96728.97
2024-02-04T06:21:56.109Z,96733.94
2024-02-04T06:24:22.465Z,96737.19
2024-02-04T06:26:48.776Z,96744.38
2024-02-04T06:29:15.112Z,96750.84
2024-02-04T06:31:41.433Z,96757.19
2024-02-04T06:34:07.895Z,96758.63
2024-02-04T06:36:34.501Z,96752.91
2024-02-04T06:39:00.886Z,96762.50
2024-02-04T06:41:27.205Z,96744.31
2024-02-04T06:43:53.535Z,96750.50
2024-02-04T06:46:19.900Z,96741.47
2024-02-04T06:48:46.426Z,96738.66
2024-02-04T06:51:12.842Z,96737.91
2024-02-04T06:53:39.203Z,96739.72
2024-02-04T06:56:05.527Z,96738.66
2024-02-04T06:58:31.857Z,96740.59
2024-02-04T07:00:58.624Z,96731.91
2024-02-04T07:03:25.076Z,96731.25
2024-02-04T07:05:51.481Z,96732.09
2024-02-04T07:08:17.820Z,96734.16
2024-02-04T07:10:44.259Z,96739.41
2024-02-04T07:13:10.751Z,96745.06
2024-02-04T07:15:37.134Z,96748.16
2024-02-04T07:18:03.532Z,96743.25
2024-02-04T07:20:29.906Z,96734.31
2024-02-04T07:22:56.288Z,96731.97
2024-02-04T07:25:22.825Z,96729.91
2024-02-04T07:27:49.214Z,96731.38
2024-02-04T07:30:15.564Z,96742.19
2024-02-04T07:32:42.070Z,96738.16
2024-02-04T07:35:08.497Z,96743.44
2024-02-04T07:37:34.881Z,96738.13
2024-02-04T07:40:01.313Z,96738.38
2024-02-04T07:42:28.055Z,96739.91
2024-02-04T07:44:54.394Z,96744.31
2024-02-04T07:47:20.753Z,96748.19
2024-02-04T07:49:47.305Z,96756.28
2024-02-04T07:52:13.743Z,96757.38
2024-02-04T07:54:40.155Z,96753.75
2024-02-04T07:57:06.533Z,96757.38
2024-02-04T07:59:32.862Z,96762.09
2024-02-04T08:01:59.245Z,96765.25
2024-02-04T08:04:25.611Z,96764.25
2024-02-04T08:06:52.189Z,96765.06
2024-02-04T08:09:18.579Z,96761.16
2024-02-04T08:11:44.923Z,96757.41
2024-02-04T08:14:11.256Z,96764.56
2024-02-04T08:16:37.586Z,96765.47
2024-02-04T08:19:04.095Z,96765.13
2024-02-04T08:21:30.467Z,96769.72
2024-02-04T08:23:56.801Z,96769.13
2024-02-04T08:26:23.137Z,96775.78
2024-02-04T08:28:49.463Z,96768.28
2024-02-04T08:31:15.882Z,96771.88
2024-02-04T08:33:42.369Z,96774.13
2024-02-04T08:36:08.732Z,96775.28
2024-02-04T08:38:35.062Z,96784.06
2024-02-04T08:41:01.413Z,96777.03
2024-02-04T08:43:27.827Z,96778.84
2024-02-04T08:45:54.204Z,96782.00
2024-02-04T08:48:20.608Z,96783.25
2024-02-04T08:50:46.950Z,96784.56
2024-02-04T08:53:13.280Z,96778.72
2024-02-04T08:55:39.603Z,96783.53
2024-02-04T08:58:05.950Z,96775.91
2024-02-04T09:00:32.365Z,96769.47
2024-02-04T09:02:58.709Z,96774.53
2024-02-04T09:05:25.045Z,96776.16
2024-02-04T09:07:51.454Z,96770.75
2024-02-04T09:10:17.949Z,96779.84
2024-02-04T09:12:44.507Z,96770.03
2024-02-04T09:15:10.954Z,96776.38
2024-02-04T09:17:37.497Z,96775.34
2024-02-04T09:20:04.337Z,96773.50
2024-02-04T09:22:30.944Z,96783.44
2024-02-04T09:24:57.514Z,96774.91
2024-02-04T09:27:23.986Z,96771.09
2024-02-04T09:29:50.413Z,96763.69
2024-02-04T09:32:19.286Z,96762.44
2024-02-04T09:34:46.169Z,96757.50
2024-02-04T09:37:13.095Z,96756.97
2024-02-04T09:39:39.632Z,96764.53
2024-02-04T09:42:06.082Z,96761.31
2024-02-04T09:44:32.431Z,96763.09
2024-02-04T09:46:58.792Z,96764.66
2024-02-04T09:49:25.293Z,96765.69
2024-02-04T09:51:51.908Z,96769.16
2024-02-04T09:54:18.486Z,96762.44
2024-02-04T09:56:44.856Z,96761.63
2024-02-04T09:59:11.220Z,96763.97
2024-02-04T10:01:37.690Z,96769.91
2024-02-04T10:04:04.517Z,96764.69
2024-02-04T10:06:32.257Z,96762.84
2024-02-04T10:08:58.930Z,96759.72
2024-02-04T10:11:25.409Z,96766.63
2024-02-04T10:13:51.750Z,96770.38
2024-02-04T10:16:18.094Z,96769.34
2024-02-04T10:18:44.621Z,96756.88
2024-02-04T10:21:11.031Z,96768.69
2024-02-04T10:23:37.359Z,96764.41
2024-02-04T10:26:06.462Z,96765.63
2024-02-04T10:28:34.168Z,96759.47
2024-02-04T10:31:00.525Z,96764.06
2024-02-04T10:33:27.092Z,96753.81
2024-02-04T10:35:53.646Z,96754.34
2024-02-04T10:38:20.023Z,96754.50
2024-02-04T10:40:46.391Z,96753.91
2024-02-04T10:43:12.726Z,96756.50
2024-02-04T10:45:39.093Z,96754.63
2024-02-04T10:48:05.530Z,96753.69
2024-02-04T10:50:31.883Z,96749.94
2024-02-04T10:52:58.197Z,96744.47
2024-02-04T10:55:24.603Z,96740.22
2024-02-04T10:57:50.958Z,96740.25
2024-02-04T11:00:17.289Z,96730.81
2024-02-04T11:02:43.623Z,96735.13
2024-02-04T11:05:10.093Z,96734.59
2024-02-04T11:07:36.492Z,96732.97
2024-02-04T11:10:02.980Z,96727.50
2024-02-04T11:12:29.403Z,96734.72
2024-02-04T11:14:55.735Z,96732.50
2024-02-04T11:17:22.106Z,96726.25
2024-02-04T11:19:48.552Z,96726.72
2024-02-04T11:22:15.024Z,96728.47
2024-02-04T11:24:41.423Z,96723.75
2024-02-04T11:27:07.776Z,96723.06
2024-02-04T11:29:34.188Z,96727.81
2024-02-04T11:32:00.695Z,96710.50
2024-02-04T11:34:27.460Z,96711.88
2024-02-04T11:36:53.960Z,96706.06
2024-02-04T11:39:20.391Z,96692.69
2024-02-04T11:41:46.792Z,96695.41
2024-02-04T11:44:13.124Z,96688.38
2024-02-04T11:46:39.548Z,96684.19
2024-02-04T11:49:06.144Z,96678.00
2024-02-04T11:51:32.731Z,96672.34
2024-02-04T11:53:59.324Z,96668.38
2024-02-04T11:56:25.863Z,96669.03
2024-02-04T11:58:52.236Z,96664.81
2024-02-04T12:01:18.606Z,96669.69
2024-02-04T12:03:44.977Z,96663.50
2024-02-04T12:06:11.465Z,96657.59
2024-02-04T12:08:37.804Z,96657.63
2024-02-04T12:11:04.126Z,96652.13
2024-02-04T12:13:30.484Z,96649.56
2024-02-04T12:15:56.856Z,96654.94
2024-02-04T12:18:23.376Z,96650.63
2024-02-04T12:20:49.912Z,96652.47
2024-02-04T12:23:16.269Z,96641.78
2024-02-04T12:25:44.792Z,96638.25
2024-02-04T12:28:11.515Z,96641.75
2024-02-04T12:30:37.985Z,96646.00
2024-02-04T12:33:04.393Z,96654.38
2024-02-04T12:35:30.758Z,96642.47
2024-02-04T12:37:57.084Z,96640.47
2024-02-04T12:40:23.397Z,96639.00
2024-02-04T12:42:49.760Z,96645.75
2024-02-04T12:45:16.209Z,96636.47
2024-02-04T12:47:42.660Z,96644.84
2024-02-04T12:50:09.024Z,96636.00
2024-02-04T12:52:35.386Z,96635.19
2024-02-04T12:55:01.774Z,96634.81
2024-02-04T12:57:28.157Z,96632.09
2024-02-04T12:59:54.502Z,96631.38
2024-02-04T13:02:20.822Z,96633.06
2024-02-04T13:04:47.383Z,96623.84
2024-02-04T13:07:13.850Z,96631.16
2024-02-04T13:09:40.383Z,96640.59
2024-02-04T13:12:06.896Z,96618.59
2024-02-04T13:14:33.210Z,96620.44
2024-02-04T13:16:59.648Z,96619.81
2024-02-04T13:19:26.099Z,96613.00
2024-02-04T13:21:52.548Z,96615.72
2024-02-04T13:24:18.904Z,96615.28
2024-02-04T13:26:45.229Z,96610.69
2024-02-04T13:29:11.559Z,96611.72
2024-02-04T13:31:37.953Z,96607.47
2024-02-04T13:34:04.420Z,96593.25
2024-02-04T13:36:30.812Z,96590.50
2024-02-04T13:38:57.174Z,96589.38
2024-02-04T13:41:23.517Z,96584.72
2024-02-04T13:43:49.827Z,96579.94
2024-02-04T13:46:16.205Z,96589.59
2024-02-04T13:48:42.643Z,96583.22
2024-02-04T13:51:09.014Z,96580.47
2024-02-04T13:53:35.353Z,96570.59
2024-02-04T13:56:01.821Z,96574.72
2024-02-04T13:58:28.407Z,96573.06
2024-02-04T14:00:54.837Z,96573.38
2024-02-04T14:03:21.218Z,96568.75
2024-02-04T14:05:47.575Z,96563.53
2024-02-04T14:08:13.920Z,96568.28
2024-02-04T14:10:40.266Z,96567.22
2024-02-04T14:13:09.733Z,96572.25
2024-02-04T14:15:37.489Z,96583.09
2024-02-04T14:18:03.900Z,96577.53
2024-02-04T14:20:30.293Z,96582.28
2024-02-04T14:22:56.709Z,96587.81
2024-02-04T14:25:23.081Z,96578.72
2024-02-04T14:27:49.492Z,96574.25
2024-02-04T14:30:15.858Z,96570.50
2024-02-04T14:32:42.220Z,96566.78
2024-02-04T14:35:08.663Z,96566.47
2024-02-04T14:37:35.037Z,96561.41
2024-02-04T14:40:01.418Z,96554.41
2024-02-04T14:42:27.765Z,96557.28
2024-02-04T14:44:54.081Z,96562.88
2024-02-04T14:47:20.509Z,96560.59
2024-02-04T14:49:46.918Z,96560.09
2024-02-04T14:52:13.317Z,96573.47
2024-02-04T14:54:39.805Z,96562.38
2024-02-04T14:57:06.162Z,96561.47
2024-02-04T14:59:32.597Z,96563.22
2024-02-04T15:01:59.017Z,96559.75
2024-02-04T15:04:25.445Z,96558.16
2024-02-04T15:06:52.005Z,96553.97
2024-02-04T15:09:18.406Z,96556.66
2024-02-04T15:11:44.738Z,96556.41
2024-02-04T15:14:11.074Z,96553.66
2024-02-04T15:16:37.455Z,96551.84
2024-02-04T15:19:03.875Z,96552.09
2024-02-04T15:21:30.325Z,96551.84
2024-02-04T15:23:56.694Z,96547.81
2024-02-04T15:26:23.026Z,96553.72
2024-02-04T15:28:49.536Z,96557.75
2024-02-04T15:31:17.019Z,96557.47
2024-02-04T15:33:43.409Z,96554.81
2024-02-04T15:36:09.833Z,96548.13
2024-02-04T15:38:36.353Z,96551.31
2024-02-04T15:41:02.930Z,96548.38
2024-02-04T15:43:29.489Z,96556.88
2024-02-04T15:45:56.056Z,96556.88
2024-02-04T15:48:22.695Z,96562.50
2024-02-04T15:50:49.175Z,96566.75
2024-02-04T15:53:15.660Z,96561.72
2024-02-04T15:55:42.026Z,96562.28
2024-02-04T15:58:08.469Z,96559.03
2024-02-04T16:00:34.898Z,96556.13
2024-02-04T16:03:01.320Z,96554.47
2024-02-04T16:05:27.750Z,96550.47
2024-02-04T16:07:54.170Z,96555.28
2024-02-04T16:10:20.734Z,96565.91
2024-02-04T16:12:47.231Z,96555.28
2024-02-04T16:15:13.633Z,96559.78
2024-02-04T16:17:40.115Z,96559.00
2024-02-04T16:20:06.801Z,96559.47
2024-02-04T16:22:33.516Z,96558.91
2024-02-04T16:25:00.330Z,96562.34
2024-02-04T16:27:26.876Z,96564.72
2024-02-04T16:29:53.277Z,96555.06
2024-02-04T16:32:19.735Z,96560.94
2024-02-04T16:34:46.235Z,96554.00
2024-02-04T16:37:12.887Z,96557.97
2024-02-04T16:39:39.390Z,96561.41
2024-02-04T16:42:05.832Z,96564.84
2024-02-04T16:44:32.276Z,96570.69
2024-02-04T16:46:58.794Z,96569.53
2024-02-04T16:51:52.117Z,96574.78
2024-02-04T16:54:18.570Z,96574.41
2024-02-04T16:56:45.052Z,96584.25
2024-02-04T16:59:11.505Z,96582.84
2024-02-04T17:01:38.024Z,96579.34
2024-02-04T17:04:04.564Z,96578.22
2024-02-04T17:06:31.019Z,96582.25
2024-02-04T17:08:57.411Z,96583.03
2024-02-04T17:11:23.735Z,96579.28
2024-02-04T17:13:50.049Z,96579.28
2024-02-04T17:16:16.508Z,96586.25
2024-02-04T17:18:42.947Z,96590.19
2024-02-04T17:21:09.367Z,96593.63
2024-02-04T17:23:35.687Z,96596.56
2024-02-04T17:26:02.088Z,96600.78
2024-02-04T17:28:28.607Z,96599.16
2024-02-04T17:30:54.963Z,96597.38
2024-02-04T17:33:21.409Z,96598.75
2024-02-04T17:35:47.876Z,96598.16
2024-02-04T17:38:14.331Z,96597.56
2024-02-04T17:40:40.643Z,96598.53
2024-02-04T17:43:07.037Z,96596.09
2024-02-04T17:45:33.421Z,96599.53
2024-02-04T17:47:59.773Z,96598.94
2024-02-04T17:50:28.085Z,96595.44
2024-02-04T17:52:54.647Z,96596.66
2024-02-04T17:55:20.977Z,96601.88
2024-02-04T17:57:47.415Z,96608.19
2024-02-04T18:00:13.776Z,96595.47
2024-02-04T18:02:46.641Z,96600.38
2024-02-04T18:05:15.009Z,96589.75
2024-02-04T18:07:41.749Z,96589.69
2024-02-04T18:10:08.196Z,96594.69
2024-02-04T18:12:34.555Z,96599.25
2024-02-04T18:15:00.903Z,96596.28
2024-02-04T18:17:28.800Z,96605.63
2024-02-04T18:19:56.816Z,96597.41
2024-02-04T18:22:23.220Z,96594.78
2024-02-04T18:24:49.632Z,96596.09
2024-02-04T18:27:15.971Z,96599.22
2024-02-04T18:29:42.282Z,96595.66
2024-02-04T18:32:08.705Z,96601.00
2024-02-04T18:34:35.236Z,96597.78
2024-02-04T18:37:01.619Z,96597.47
2024-02-04T18:39:27.949Z,96594.72
2024-02-04T18:41:54.277Z,96588.84
2024-02-04T18:44:20.713Z,96589.03
2024-02-04T18:46:47.056Z,96593.16
2024-02-04T18:49:13.457Z,96600.59
2024-02-04T18:51:39.882Z,96595.75
2024-02-04T18:54:06.205Z,96592.06
2024-02-04T18:56:32.645Z,96593.97
2024-02-04T18:58:59.004Z,96599.72
2024-02-04T19:01:25.495Z,96598.34
2024-02-04T19:03:52.128Z,96598.84
2024-02-04T19:06:18.637Z,96598.28
2024-02-04T19:08:45.257Z,96601.34
2024-02-04T19:11:11.631Z,96610.66
2024-02-04T19:13:37.991Z,96611.38
2024-02-04T19:16:04.413Z,96611.06
2024-02-04T19:18:30.823Z,96599.91
2024-02-04T19:20:57.158Z,96604.16
2024-02-04T19:23:23.515Z,96614.94
2024-02-04T19:25:49.852Z,96610.97
2024-02-04T19:28:16.218Z,96613.63
2024-02-04T19:30:42.631Z,96615.00
2024-02-04T19:33:09.074Z,96609.97
2024-02-04T19:35:35.483Z,96609.81
2024-02-04T19:38:01.835Z,96617.25
2024-02-04T19:40:28.152Z,96613.69
2024-02-04T19:42:54.476Z,96613.06
2024-02-04T19:45:20.833Z,96617.34
2024-02-04T19:47:47.221Z,96621.53
2024-02-04T19:50:13.750Z,96623.06
2024-02-04T19:52:40.136Z,96620.06
2024-02-04T19:55:06.502Z,96624.03
2024-02-04T19:57:32.899Z,96626.13
2024-02-04T19:59:59.282Z,96623.50
2024-02-04T20:02:25.630Z,96625.78
2024-02-04T20:04:52.042Z,96609.00
2024-02-04T20:07:18.529Z,96620.03
2024-02-04T20:09:44.950Z,96617.72
2024-02-04T20:12:11.268Z,96627.34
2024-02-04T20:14:37.855Z,96636.19
2024-02-04T20:17:04.207Z,96637.25
2024-02-04T20:19:30.671Z,96638.03
2024-02-04T20:21:57.170Z,96637.84
2024-02-04T20:24:23.542Z,96643.44
2024-02-04T20:26:49.899Z,96645.78
2024-02-04T20:29:16.233Z,96649.13
2024-02-04T20:31:42.573Z,96648.34
2024-02-04T20:34:09.146Z,96647.06
2024-02-04T20:36:35.807Z,96652.41
2024-02-04T20:39:02.155Z,96653.22
2024-02-04T20:41:28.487Z,96651.13
2024-02-04T20:43:54.957Z,96640.28
2024-02-04T20:46:21.340Z,96645.25
2024-02-04T20:48:47.679Z,96641.56
2024-02-04T20:51:14.084Z,96642.28
2024-02-04T20:53:40.484Z,96642.84
2024-02-04T20:56:06.923Z,96641.78
2024-02-04T20:58:33.243Z,96642.13
2024-02-04T21:00:59.665Z,96638.44
2024-02-04T21:03:26.053Z,96655.47
2024-02-04T21:05:52.458Z,96651.28
2024-02-04T21:08:18.831Z,96654.28
2024-02-04T21:10:45.163Z,96649.09
2024-02-04T21:13:11.553Z,96656.72
2024-02-04T21:15:38.228Z,96651.53
2024-02-04T21:18:04.924Z,96646.66
2024-02-04T21:20:31.618Z,96654.91
2024-02-04T21:22:57.965Z,96655.34
2024-02-04T21:25:24.473Z,96649.34
2024-02-04T21:27:50.959Z,96655.56
2024-02-04T21:30:17.317Z,96644.47
2024-02-04T21:32:43.697Z,96649.56
2024-02-04T21:35:10.916Z,96651.66
2024-02-04T21:37:37.711Z,96653.28
2024-02-04T21:40:04.106Z,96652.00
2024-02-04T21:42:30.504Z,96656.28
2024-02-04T21:44:56.838Z,96654.88
2024-02-04T21:47:23.175Z,96661.59
2024-02-04T21:49:49.633Z,96653.53
2024-02-04T21:52:16.160Z,96660.09
2024-02-04T21:54:42.578Z,96659.53
2024-02-04T21:57:08.989Z,96662.50
2024-02-04T21:59:35.322Z,96667.38
2024-02-04T22:02:01.823Z,96667.25
2024-02-04T22:04:28.330Z,96664.94
2024-02-04T22:06:54.977Z,96666.34
2024-02-04T22:09:21.495Z,96672.28
2024-02-04T22:11:47.834Z,96673.06
2024-02-04T22:14:14.160Z,96673.31
2024-02-04T22:16:40.519Z,96670.19
2024-02-04T22:19:07.045Z,96666.81
2024-02-04T22:21:33.500Z,96659.06
2024-02-04T22:23:59.914Z,96675.69
2024-02-04T22:26:26.248Z,96663.09
2024-02-04T22:28:52.580Z,96668.41
2024-02-04T22:31:19.124Z,96667.72
2024-02-04T22:33:45.615Z,96670.81
2024-02-04T22:36:12.025Z,96670.94
2024-02-04T22:38:38.572Z,96661.25
2024-02-04T22:41:04.902Z,96667.34
2024-02-04T22:43:31.330Z,96665.06
2024-02-04T22:45:57.720Z,96662.53
2024-02-04T22:48:24.098Z,96666.66
2024-02-04T22:50:50.443Z,96663.41
2024-02-04T22:53:16.870Z,96662.84
2024-02-04T22:55:43.193Z,96660.41
2024-02-04T22:58:09.593Z,96655.78
2024-02-04T23:00:36.118Z,96656.78
2024-02-04T23:03:02.493Z,96656.72
2024-02-04T23:05:28.849Z,96648.38
2024-02-04T23:07:57.291Z,96656.59
2024-02-04T23:10:25.434Z,96649.09
2024-02-04T23:12:51.795Z,96651.28
2024-02-04T23:15:18.276Z,96650.84
2024-02-04T23:17:44.653Z,96651.03
2024-02-04T23:20:11.303Z,96653.31
2024-02-04T23:22:37.882Z,96658.63
2024-02-04T23:25:04.228Z,96655.41
2024-02-04T23:27:30.577Z,96654.13
2024-02-04T23:29:57.046Z,96653.56
2024-02-04T23:32:23.360Z,96653.06
2024-02-04T23:34:49.796Z,96655.84
2024-02-04T23:37:16.559Z,96642.44
2024-02-04T23:39:42.953Z,96646.34
2024-02-04T23:42:09.297Z,96649.00
2024-02-04T23:44:35.788Z,96639.09
2024-02-04T23:47:02.125Z,96639.97
2024-02-04T23:49:28.595Z,96636.28
2024-02-04T23:51:55.089Z,96640.78
2024-02-04T23:54:21.433Z,96637.31
2024-02-04T23:56:47.759Z,96644.94
2024-02-04T23:59:14.102Z,96640.22
